Time;durP1;ratioP1;P1;durP2;ratioP2;P2;SDS_P1;SDS_P2;PMS_P1;PMS_P2;Temp;Humidity;BMP_temperature;BMP_pressure;BME280_temperature;BME280_humidity;BME280_pressure;Samples;Min_cycle;Max_cycle;Signal;HPM_P1;HPM_P2
2021/03/09 00:00:59;;;;;;;3.13;1.50;;;;;;;-3.31;61.14;101664.63;5057360;28;20188;-69
2021/03/09 00:03:24;;;;;;;3.27;1.57;;;;;;;-3.34;61.87;101655.03;5056219;28;20179;-69
2021/03/09 00:05:50;;;;;;;4.07;1.70;;;;;;;-3.39;62.13;101668.81;5057449;28;20176;-69
2021/03/09 00:08:15;;;;;;;4.70;1.40;;;;;;;-3.40;61.87;101656.63;5056865;28;20199;-69
2021/03/09 00:10:40;;;;;;;3.80;1.43;;;;;;;-3.39;61.79;101661.88;5056122;28;20181;-69
2021/03/09 00:13:06;;;;;;;2.67;1.50;;;;;;;-3.37;61.58;101660.16;5055850;28;20193;-69
2021/03/09 00:15:31;;;;;;;5.77;1.63;;;;;;;-3.38;62.19;101666.25;5056126;28;20279;-69
2021/03/09 00:17:57;;;;;;;4.40;1.40;;;;;;;-3.43;62.49;101665.28;5056100;28;20173;-70
2021/03/09 00:20:22;;;;;;;4.80;1.50;;;;;;;-3.52;63.11;101667.75;5038722;28;20225;-69
2021/03/09 00:22:47;;;;;;;4.67;1.30;;;;;;;-3.50;63.47;101664.31;5058044;28;20186;-69
2021/03/09 00:25:13;;;;;;;5.70;1.83;;;;;;;-3.56;63.46;101663.31;5056052;28;20279;-69
2021/03/09 00:27:38;;;;;;;2.27;1.20;;;;;;;-3.64;63.60;101663.19;5057282;28;20176;-69
2021/03/09 00:30:04;;;;;;;3.07;1.80;;;;;;;-3.71;64.22;101663.94;5057277;28;20175;-69
2021/03/09 00:32:29;;;;;;;4.27;2.10;;;;;;;-3.79;64.62;101657.69;5055807;28;20529;-69
2021/03/09 00:34:55;;;;;;;4.63;1.77;;;;;;;-3.71;64.17;101669.16;5055367;28;20456;-69
2021/03/09 00:37:20;;;;;;;4.37;2.00;;;;;;;-3.68;64.30;101666.59;5055235;28;20633;-69
2021/03/09 00:39:45;;;;;;;3.23;1.43;;;;;;;-3.67;63.65;101662.25;5055079;28;20199;-69
2021/03/09 00:42:11;;;;;;;5.87;1.90;;;;;;;-3.69;63.50;101659.63;5056464;28;20201;-70
2021/03/09 00:44:36;;;;;;;4.53;1.97;;;;;;;-3.65;62.90;101661.44;5038520;28;20695;-69
2021/03/09 00:47:02;;;;;;;4.43;1.83;;;;;;;-3.70;63.84;101654.38;5056397;28;20245;-70
2021/03/09 00:49:27;;;;;;;3.30;1.97;;;;;;;-3.78;64.03;101662.03;5057278;28;20517;-68
2021/03/09 00:51:52;;;;;;;4.60;1.90;;;;;;;-3.83;65.05;101663.69;5056618;28;20172;-70
2021/03/09 00:54:18;;;;;;;3.67;1.93;;;;;;;-3.93;64.73;101657.44;5056114;28;20567;-69
2021/03/09 00:56:43;;;;;;;2.73;1.53;;;;;;;-3.93;64.66;101661.75;5057185;28;20169;-69
2021/03/09 00:59:08;;;;;;;2.07;1.23;;;;;;;-3.79;62.89;101652.47;5056164;28;20587;-70
2021/03/09 01:01:34;;;;;;;3.17;1.77;;;;;;;-3.53;60.48;101660.75;5056958;28;20764;-70
2021/03/09 01:03:59;;;;;;;3.33;1.80;;;;;;;-3.42;59.37;101651.38;5056030;28;20191;-69
2021/03/09 01:06:25;;;;;;;4.33;1.30;;;;;;;-3.42;59.49;101648.78;5054818;28;20235;-69
2021/03/09 01:08:51;;;;;;;3.13;1.20;;;;;;;-3.34;59.20;101646.31;5056005;28;20202;-69
2021/03/09 01:11:16;;;;;;;3.27;1.50;;;;;;;-3.20;58.30;101639.56;5054891;28;20400;-70
2021/03/09 01:13:41;;;;;;;2.90;1.70;;;;;;;-3.18;57.65;101643.97;5054408;28;20183;-69
2021/03/09 01:16:07;;;;;;;7.07;1.50;;;;;;;-3.13;58.13;101641.41;5056196;28;20175;-69
2021/03/09 01:18:32;;;;;;;5.97;1.63;;;;;;;-3.18;58.33;101632.63;5056088;28;20253;-69
2021/03/09 01:20:57;;;;;;;3.03;1.50;;;;;;;-3.20;58.17;101630.00;5055641;28;20540;-69
2021/03/09 01:23:22;;;;;;;2.87;1.67;;;;;;;-3.16;57.60;101631.81;5056214;28;20176;-68
2021/03/09 01:25:48;;;;;;;3.97;1.40;;;;;;;-3.17;57.46;101637.00;5056556;28;20228;-69
2021/03/09 01:28:13;;;;;;;5.07;1.97;;;;;;;-3.19;57.80;101623.06;5055827;28;20551;-69
2021/03/09 01:30:38;;;;;;;3.37;1.40;;;;;;;-3.15;57.20;101624.84;5054582;28;20179;-69
2021/03/09 01:33:04;;;;;;;3.90;1.37;;;;;;;-3.12;57.16;101621.41;5054745;28;20262;-69
2021/03/09 01:35:29;;;;;;;3.73;1.73;;;;;;;-3.17;57.17;101626.56;5055687;28;20222;-69
2021/03/09 01:37:54;;;;;;;3.67;1.60;;;;;;;-3.17;57.28;101623.94;5055881;28;20167;-70
2021/03/09 01:40:21;;;;;;;4.57;1.60;;;;;;;-3.21;57.50;101617.81;5055416;28;20201;-68
2021/03/09 01:42:47;;;;;;;2.27;1.23;;;;;;;-3.27;57.46;101612.50;5055530;28;20175;-70
2021/03/09 01:45:12;;;;;;;4.10;2.07;;;;;;;-3.31;57.73;101612.44;5055606;28;20437;-69
2021/03/09 01:47:46;;;;;;;3.97;1.60;;;;;;;-3.26;57.65;101613.38;5037447;28;20178;-69
2021/03/09 01:50:14;;;;;;;4.17;1.70;;;;;;;-3.32;57.75;101608.06;5054042;28;20638;-70
2021/03/09 01:52:41;;;;;;;4.87;1.43;;;;;;;-3.29;57.44;101598.53;5053992;28;20494;-69
2021/03/09 01:55:07;;;;;;;5.23;1.70;;;;;;;-3.36;58.19;101609.72;5053801;28;20450;-69
2021/03/09 01:57:33;;;;;;;2.47;1.47;;;;;;;-3.47;58.11;101612.16;5053561;28;20514;-69
2021/03/09 02:00:01;;;;;;;7.00;1.70;;;;;;;-3.49;58.29;101605.16;5055166;28;20190;-69
2021/03/09 02:02:26;;;;;;;2.53;1.40;;;;;;;-3.59;58.36;101600.66;5054339;28;20187;-70
2021/03/09 02:04:51;;;;;;;2.87;1.43;;;;;;;-3.57;58.64;101602.44;5055703;28;20516;-69
2021/03/09 02:07:16;;;;;;;2.70;1.57;;;;;;;-3.45;57.84;101596.53;5053825;28;20177;-70
2021/03/09 02:09:42;;;;;;;3.10;1.27;;;;;;;-3.41;58.12;101587.88;5055228;28;20233;-69
2021/03/09 02:12:24;;;;;;;4.07;1.53;;;;;;;-3.49;58.71;101592.97;5056556;28;20176;-70
2021/03/09 02:15:13;;;;;;;4.87;1.80;;;;;;;-3.37;57.95;101594.03;5039187;28;20290;-70
2021/03/09 02:18:00;;;;;;;2.80;1.63;;;;;;;-3.49;58.68;101590.38;5056590;28;20472;-70
2021/03/09 02:20:25;;;;;;;3.57;1.60;;;;;;;-3.56;58.56;101588.53;5055396;28;20484;-71
2021/03/09 02:23:07;;;;;;;4.50;1.53;;;;;;;-3.66;59.63;101589.22;5054180;28;20497;-70
2021/03/09 02:26:11;;;;;;;3.80;1.60;;;;;;;-3.71;60.17;101582.19;5053384;28;20195;-70
2021/03/09 02:28:50;;;;;;;4.83;2.03;;;;;;;-3.65;59.40;101588.38;5036966;28;21126;-71
2021/03/09 02:31:16;;;;;;;3.03;1.23;;;;;;;-3.71;59.91;101585.66;5053707;28;20831;-71
2021/03/09 02:33:51;;;;;;;4.57;2.33;;;;;;;-3.87;61.49;101587.13;5053360;28;20444;-70
2021/03/09 02:36:20;;;;;;;2.57;1.83;;;;;;;-3.88;61.06;101589.69;5053374;28;20254;-71
2021/03/09 02:38:54;;;;;;;5.37;2.00;;;;;;;-4.01;61.60;101574.69;5052975;28;20445;-70
2021/03/09 02:41:20;;;;;;;4.60;1.87;;;;;;;-4.06;62.21;101582.44;5053062;28;20408;-70
2021/03/09 02:43:48;;;;;;;4.53;1.83;;;;;;;-4.17;61.95;101576.13;5054741;28;20436;-70
2021/03/09 02:46:15;;;;;;;3.33;1.57;;;;;;;-4.18;61.90;101571.75;5053300;28;20781;-70
2021/03/09 02:48:41;;;;;;;3.57;1.93;;;;;;;-4.15;61.85;101569.19;5053129;28;20420;-70
2021/03/09 02:51:08;;;;;;;3.50;1.33;;;;;;;-4.14;61.43;101566.63;5052779;28;20458;-70
2021/03/09 02:53:34;;;;;;;2.93;1.53;;;;;;;-4.15;61.55;101575.28;5054022;28;20400;-70
2021/03/09 02:56:02;;;;;;;7.00;1.73;;;;;;;-4.16;61.58;101564.84;5052869;28;20397;-70
2021/03/09 02:58:28;;;;;;;5.73;1.60;;;;;;;-4.07;61.15;101571.97;5054075;28;20840;-70
2021/03/09 03:00:53;;;;;;;2.43;1.70;;;;;;;-4.09;60.93;101558.88;5053117;28;20444;-70
2021/03/09 03:03:19;;;;;;;1.87;1.27;;;;;;;-3.94;60.43;101568.72;5052745;28;20172;-71
2021/03/09 03:05:44;;;;;;;3.23;1.50;;;;;;;-3.91;59.62;101572.25;5052478;28;20183;-70
2021/03/09 03:08:12;;;;;;;4.13;1.70;;;;;;;-3.92;60.12;101567.03;5052897;28;20251;-70
2021/03/09 03:10:43;;;;;;;5.50;1.50;;;;;;;-3.86;59.86;101567.13;5052491;28;20214;-70
2021/03/09 03:13:09;;;;;;;3.60;1.50;;;;;;;-3.80;59.88;101565.50;5052494;28;20825;-70
2021/03/09 03:15:36;;;;;;;3.37;1.80;;;;;;;-3.80;59.72;101554.19;5052627;28;20474;-70
2021/03/09 03:18:03;;;;;;;2.97;1.50;;;;;;;-3.73;58.91;101566.47;5053653;28;20466;-71
2021/03/09 03:20:29;;;;;;;4.23;1.33;;;;;;;-3.72;59.30;101560.41;5053714;28;20451;-70
2021/03/09 03:22:55;;;;;;;3.00;1.70;;;;;;;-3.72;59.15;101555.19;5035736;28;20421;-70
2021/03/09 03:25:20;;;;;;;3.57;1.73;;;;;;;-3.71;58.83;101556.97;5052188;28;20195;-70
2021/03/09 03:27:47;;;;;;;2.97;1.33;;;;;;;-3.79;59.84;101554.22;5052234;28;20183;-70
2021/03/09 03:30:14;;;;;;;4.87;1.70;;;;;;;-3.77;59.22;101546.41;5052372;28;20182;-71
2021/03/09 03:32:39;;;;;;;2.67;1.37;;;;;;;-3.78;59.12;101550.75;5052202;28;20413;-70
2021/03/09 03:35:10;;;;;;;3.53;1.67;;;;;;;-3.88;59.62;101554.06;5052919;28;20435;-70
2021/03/09 03:37:36;;;;;;;2.37;1.50;;;;;;;-3.88;59.57;101546.22;5053660;28;20215;-70
2021/03/09 03:40:06;;;;;;;4.37;1.47;;;;;;;-4.03;60.64;101539.88;5053645;28;20453;-71
2021/03/09 03:42:32;;;;;;;3.80;1.53;;;;;;;-4.10;61.23;101534.53;5053981;28;20498;-70
2021/03/09 03:44:59;;;;;;;6.50;1.93;;;;;;;-4.11;60.94;101540.59;5053388;28;20973;-71
2021/03/09 03:47:24;;;;;;;2.27;1.43;;;;;;;-4.20;61.94;101540.44;5052232;28;20394;-70
2021/03/09 03:49:49;;;;;;;3.20;1.43;;;;;;;-4.27;61.56;101533.38;5052382;28;20412;-70
2021/03/09 03:52:31;;;;;;;4.77;1.60;;;;;;;-4.23;61.92;101543.00;5052505;28;20234;-70
2021/03/09 03:55:15;;;;;;;5.30;1.43;;;;;;;-4.29;62.00;101540.28;5051810;28;20203;-70
2021/03/09 03:57:48;;;;;;;2.93;1.70;;;;;;;-4.31;62.26;101541.97;5052255;28;20857;-70
2021/03/09 04:00:16;;;;;;;3.37;2.00;;;;;;;-4.36;62.30;101535.81;5053723;28;20452;-71
2021/03/09 04:02:42;;;;;;;3.93;1.83;;;;;;;-4.28;62.19;101533.34;5053815;28;20416;-70
2021/03/09 04:05:08;;;;;;;4.57;1.97;;;;;;;-4.31;62.20;101528.94;5054903;28;20478;-70
2021/03/09 04:07:34;;;;;;;1.27;1.13;;;;;;;-4.36;61.99;101530.59;5051892;28;20275;-70
2021/03/09 04:10:00;;;;;;;3.77;1.90;;;;;;;-4.25;62.00;101538.59;5053715;28;20827;-70
2021/03/09 04:12:28;;;;;;;3.00;1.60;;;;;;;-4.28;61.72;101541.16;5053972;28;20409;-70
2021/03/09 04:14:56;;;;;;;1.97;1.30;;;;;;;-4.28;61.36;101536.81;5053753;28;20189;-70
2021/03/09 04:17:22;;;;;;;4.30;1.90;;;;;;;-4.19;61.10;101536.97;5052662;28;20417;-70
2021/03/09 04:19:47;;;;;;;6.23;2.13;;;;;;;-4.28;61.81;101535.94;5052104;28;20830;-70
2021/03/09 04:22:14;;;;;;;4.40;1.83;;;;;;;-4.37;62.41;101528.84;5053844;28;20187;-69
2021/03/09 04:24:40;;;;;;;5.67;2.20;;;;;;;-4.41;62.52;101534.84;5053020;28;20200;-69
2021/03/09 04:27:06;;;;;;;4.07;1.90;;;;;;;-4.38;62.50;101534.03;5051567;28;20451;-68
2021/03/09 04:29:31;;;;;;;3.67;1.73;;;;;;;-4.46;62.79;101528.63;5051464;28;20459;-68
2021/03/09 04:31:57;;;;;;;3.53;1.50;;;;;;;-4.57;62.82;101524.97;5035002;28;20188;-69
2021/03/09 04:34:22;;;;;;;5.27;1.87;;;;;;;-4.58;63.37;101521.47;5051495;28;20199;-69
2021/03/09 04:36:48;;;;;;;3.40;1.73;;;;;;;-4.59;63.09;101519.72;5051991;28;20172;-69
2021/03/09 04:39:13;;;;;;;6.00;2.27;;;;;;;-4.58;63.34;101521.47;5051457;28;20211;-69
2021/03/09 04:41:39;;;;;;;4.80;1.90;;;;;;;-4.64;63.65;101529.19;5051582;28;20172;-69
2021/03/09 04:44:04;;;;;;;2.43;1.50;;;;;;;-4.66;63.41;101522.19;5051270;28;20219;-69
2021/03/09 04:46:30;;;;;;;4.53;2.30;;;;;;;-4.66;63.92;101519.56;5054762;28;20648;-69
2021/03/09 04:48:55;;;;;;;2.80;1.80;;;;;;;-4.65;63.57;101523.94;5056126;28;20244;-69
2021/03/09 04:51:21;;;;;;;4.40;2.07;;;;;;;-4.63;63.84;101522.25;5056237;28;20172;-69
2021/03/09 04:53:47;;;;;;;5.03;1.77;;;;;;;-4.67;63.46;101523.91;5055958;28;20636;-69
2021/03/09 04:56:13;;;;;;;5.73;1.83;;;;;;;-4.68;64.04;101521.28;5038137;28;20409;-69
2021/03/09 04:58:38;;;;;;;9.03;2.17;;;;;;;-4.66;63.78;101519.56;5054711;28;20824;-69
2021/03/09 05:01:04;;;;;;;8.00;2.43;;;;;;;-4.64;63.69;101518.75;5054870;28;20168;-69
2021/03/09 05:03:30;;;;;;;4.40;2.13;;;;;;;-4.66;64.18;101517.84;5055949;28;20629;-67
2021/03/09 05:05:56;;;;;;;7.87;2.10;;;;;;;-4.69;64.75;101509.09;5056611;28;20517;-70
2021/03/09 05:08:21;;;;;;;3.87;1.80;;;;;;;-4.73;64.84;101516.84;5056192;28;20439;-70
2021/03/09 05:10:47;;;;;;;4.07;2.03;;;;;;;-4.69;64.17;101519.53;5055957;28;20179;-69
2021/03/09 05:13:15;;;;;;;5.80;2.53;;;;;;;-4.74;64.62;101519.44;5056228;28;20179;-70
2021/03/09 05:15:40;;;;;;;4.10;1.97;;;;;;;-4.79;65.22;101519.34;5057017;28;20444;-69
2021/03/09 05:18:05;;;;;;;4.53;2.00;;;;;;;-4.88;64.95;101519.13;5056653;28;20441;-70
2021/03/09 05:20:31;;;;;;;4.47;1.80;;;;;;;-4.84;64.54;101520.94;5056756;28;20199;-70
2021/03/09 05:22:56;;;;;;;4.50;1.80;;;;;;;-4.75;64.13;101513.34;5056592;28;20199;-69
2021/03/09 05:25:21;;;;;;;5.00;2.33;;;;;;;-4.72;64.36;101509.91;5056596;28;20679;-69
2021/03/09 05:27:47;;;;;;;3.80;1.90;;;;;;;-4.67;64.43;101525.63;5054976;28;20203;-70
2021/03/09 05:30:14;;;;;;;3.60;1.90;;;;;;;-4.73;64.15;101519.47;5056950;28;20349;-69
2021/03/09 05:32:39;;;;;;;4.07;1.83;;;;;;;-4.71;63.53;101514.28;5054631;28;20186;-69
2021/03/09 05:35:05;;;;;;;7.93;2.10;;;;;;;-4.67;63.93;101512.59;5055162;28;20432;-70
2021/03/09 05:37:31;;;;;;;5.40;1.93;;;;;;;-4.70;63.77;101516.03;5058559;28;20274;-70
2021/03/09 05:39:56;;;;;;;4.20;2.00;;;;;;;-4.68;64.00;101518.66;5055840;28;20543;-70
2021/03/09 05:42:21;;;;;;;4.70;2.00;;;;;;;-4.67;63.45;101510.00;5055410;28;20178;-70
2021/03/09 05:44:47;;;;;;;3.70;1.80;;;;;;;-4.63;63.06;101520.50;5054807;28;20195;-69
2021/03/09 05:47:12;;;;;;;3.63;1.73;;;;;;;-4.60;63.34;101517.97;5055317;28;20184;-68
2021/03/09 05:49:38;;;;;;;4.13;2.30;;;;;;;-4.58;63.10;101516.25;5055558;28;20251;-69
2021/03/09 05:52:03;;;;;;;6.70;2.50;;;;;;;-4.53;62.75;101516.34;5054346;28;20218;-69
2021/03/09 05:54:29;;;;;;;8.13;2.20;;;;;;;-4.46;62.33;101520.81;5080228;22;20223;-69
2021/03/09 05:56:54;;;;;;;5.60;2.70;;;;;;;-4.24;61.22;101511.69;5073909;28;20178;-69
2021/03/09 05:59:19;;;;;;;8.57;3.03;;;;;;;-4.10;60.72;101511.06;5075530;28;20202;-68
2021/03/09 06:01:45;;;;;;;6.47;3.17;;;;;;;-3.99;60.09;101511.28;5077203;28;20183;-69
2021/03/09 06:04:10;;;;;;;5.37;2.70;;;;;;;-3.88;59.84;101514.94;5074342;28;20195;-69
2021/03/09 06:06:36;;;;;;;6.07;2.50;;;;;;;-3.87;59.82;101513.19;5073876;28;20259;-68
2021/03/09 06:09:03;;;;;;;3.93;2.70;;;;;;;-3.80;58.76;101518.53;5074601;28;20239;-69
2021/03/09 06:11:28;;;;;;;6.63;2.20;;;;;;;-3.77;58.43;101512.50;5073476;28;20267;-68
2021/03/09 06:13:56;;;;;;;4.53;2.30;;;;;;;-3.72;58.77;101513.44;5073174;28;20926;-68
2021/03/09 06:16:22;;;;;;;6.33;1.90;;;;;;;-3.67;58.38;101513.53;5074712;28;20179;-68
2021/03/09 06:18:57;;;;;;;5.80;2.00;;;;;;;-3.65;58.68;101509.22;5056937;28;21002;-68
2021/03/09 06:21:25;;;;;;;10.17;2.50;;;;;;;-3.59;58.29;101510.19;5087408;28;20242;-68
2021/03/09 06:23:50;;;;;;;3.70;1.93;;;;;;;-3.47;57.54;101510.38;5094215;28;20408;-68
2021/03/09 06:26:35;;;;;;;5.73;2.00;;;;;;;-3.39;57.75;101510.47;5082890;28;20411;-68
2021/03/09 06:29:14;;;;;;;6.17;2.40;;;;;;;-3.32;56.96;101508.84;5075020;28;20540;-68
2021/03/09 06:31:49;;;;;;;5.70;2.30;;;;;;;-3.23;56.61;101508.97;5073879;28;20392;-68
2021/03/09 06:34:34;;;;;;;9.27;3.13;;;;;;;-3.15;56.64;101504.72;5074817;28;20422;-67
2021/03/09 06:37:24;;;;;;;7.60;3.23;;;;;;;-3.10;56.40;101499.56;5073625;28;20400;-69
2021/03/09 06:39:51;;;;;;;7.30;2.47;;;;;;;-3.01;56.11;101505.78;5075053;28;20439;-67
2021/03/09 06:42:22;;;;;;;4.93;2.97;;;;;;;-2.96;55.76;101509.34;5079373;28;20405;-69
2021/03/09 06:44:48;;;;;;;6.73;3.30;;;;;;;-2.89;55.87;101516.41;5073526;28;20427;-68
2021/03/09 06:47:14;;;;;;;4.73;2.47;;;;;;;-2.80;55.45;101518.25;5073573;28;20411;-68
2021/03/09 06:49:53;;;;;;;8.47;2.40;;;;;;;-2.74;55.13;101514.84;5072814;28;20402;-68
2021/03/09 06:52:20;;;;;;;4.83;2.47;;;;;;;-2.64;54.81;101522.78;5073735;28;20259;-68
2021/03/09 06:54:47;;;;;;;4.93;1.90;;;;;;;-2.56;54.71;101515.94;5072418;28;20543;-69
2021/03/09 06:57:13;;;;;;;6.20;2.17;;;;;;;-2.47;54.31;101515.16;5074116;28;20410;-68
2021/03/09 06:59:42;;;;;;;5.93;2.70;;;;;;;-2.37;54.73;101514.38;5073940;28;20808;-68
2021/03/09 07:02:21;;;;;;;5.47;2.60;;;;;;;-2.27;54.28;101508.38;5073843;28;20716;-69
2021/03/09 07:04:51;;;;;;;4.83;2.40;;;;;;;-2.20;54.01;101509.34;5072727;28;20936;-68
2021/03/09 07:07:35;;;;;;;7.53;2.73;;;;;;;-2.11;54.04;101513.78;5073902;28;20492;-68
2021/03/09 07:10:10;;;;;;;4.27;2.50;;;;;;;-2.04;54.39;101516.47;5071560;28;20414;-67
2021/03/09 07:12:38;;;;;;;5.50;2.23;;;;;;;-1.98;54.39;101511.28;5073526;28;20405;-68
2021/03/09 07:15:06;;;;;;;4.67;2.30;;;;;;;-1.91;53.98;101515.72;5072092;28;20441;-68
2021/03/09 07:17:33;;;;;;;5.07;2.10;;;;;;;-1.86;54.16;101513.13;5072020;28;20426;-68
2021/03/09 07:19:59;;;;;;;5.10;2.47;;;;;;;-1.77;53.70;101512.34;5072311;28;20454;-68
2021/03/09 07:22:25;;;;;;;8.53;2.77;;;;;;;-1.69;53.13;101506.31;5073001;28;20773;-68
2021/03/09 07:25:13;;;;;;;5.67;2.33;;;;;;;-1.59;54.06;101508.13;5073221;28;20595;-69
2021/03/09 07:27:56;;;;;;;4.47;2.50;;;;;;;-1.50;53.90;101511.66;5073058;28;20398;-68
2021/03/09 07:30:23;;;;;;;10.30;2.97;;;;;;;-1.53;53.12;101509.03;5073010;28;20157;-69
2021/03/09 07:32:50;;;;;;;8.30;2.53;;;;;;;-1.53;53.22;101511.66;5073397;28;20499;-69
2021/03/09 07:35:16;;;;;;;8.27;2.57;;;;;;;-1.41;54.29;101517.88;5072914;28;20282;-68
2021/03/09 07:37:42;;;;;;;7.23;2.60;;;;;;;-1.30;53.21;101512.69;5073150;28;20423;-68
2021/03/09 07:40:10;;;;;;;9.33;3.00;;;;;;;-1.22;54.51;101517.97;5071695;28;20194;-69
2021/03/09 07:42:36;;;;;;;6.63;2.10;;;;;;;-1.12;53.70;101512.78;5071744;28;20186;-70
2021/03/09 07:45:03;;;;;;;2.83;1.80;;;;;;;-0.95;53.39;101511.16;5071774;28;20198;-69
2021/03/09 07:47:29;;;;;;;5.30;2.10;;;;;;;-0.84;53.63;101513.81;5072003;28;20593;-68
2021/03/09 07:49:54;;;;;;;4.70;1.87;;;;;;;-0.76;52.13;101517.34;5071870;28;20174;-69
2021/03/09 07:52:21;;;;;;;4.37;1.97;;;;;;;-0.66;52.22;101520.91;5071903;28;20175;-69
2021/03/09 07:55:01;;;;;;;8.17;2.83;;;;;;;-0.60;52.42;101513.03;5072928;28;20245;-69
2021/03/09 07:57:26;;;;;;;6.10;2.33;;;;;;;-0.55;52.37;101506.06;5073012;28;20190;-69
2021/03/09 07:59:58;;;;;;;6.90;2.20;;;;;;;-0.51;52.18;101506.94;5071404;28;20195;-68
2021/03/09 08:02:43;;;;;;;15.93;2.43;;;;;;;-0.37;52.04;101513.13;5071620;28;20175;-69
2021/03/09 08:05:10;;;;;;;4.00;2.40;;;;;;;-0.30;51.00;101507.00;5072648;28;20197;-69
2021/03/09 08:07:55;;;;;;;4.83;2.43;;;;;;;-0.21;51.00;101506.16;5071937;28;20171;-68
2021/03/09 08:10:42;;;;;;;6.60;2.30;;;;;;;-0.16;50.91;101510.53;5071795;28;20159;-68
2021/03/09 08:13:07;;;;;;;6.70;2.43;;;;;;;-0.12;50.97;101504.41;5071949;28;20190;-68
2021/03/09 08:15:33;;;;;;;6.43;2.57;;;;;;;0.01;51.17;101502.69;5072646;28;20675;-68
2021/03/09 08:18:16;;;;;;;6.23;2.10;;;;;;;0.13;50.31;101496.56;5071696;28;20171;-68
2021/03/09 08:20:52;;;;;;;4.73;2.30;;;;;;;0.10;50.51;101505.31;5075471;28;20194;-69
2021/03/09 08:23:36;;;;;;;11.23;2.40;;;;;;;0.25;49.27;101505.31;5075699;28;20167;-69
2021/03/09 08:26:29;;;;;;;2.43;1.70;;;;;;;0.38;50.22;101505.34;5076957;28;20307;-70
2021/03/09 08:28:55;;;;;;;5.40;2.40;;;;;;;0.57;49.28;101496.53;5068493;28;20178;-71
2021/03/09 08:31:20;;;;;;;4.90;2.03;;;;;;;0.68;49.01;101499.16;5075712;28;20658;-68
2021/03/09 08:33:55;;;;;;;4.40;2.00;;;;;;;0.84;49.36;101485.97;5076678;28;20175;-68
2021/03/09 08:36:20;;;;;;;3.47;1.70;;;;;;;1.03;47.70;101480.66;5076859;28;20688;-69
2021/03/09 08:39:00;;;;;;;3.40;1.80;;;;;;;1.09;47.04;101478.88;5076482;28;20285;-69
2021/03/09 08:41:27;;;;;;;6.67;1.83;;;;;;;1.24;47.37;101480.59;5076831;28;20176;-69
2021/03/09 08:44:17;;;;;;;4.73;2.10;;;;;;;1.26;47.32;101486.72;5075532;28;20194;-68
2021/03/09 08:47:03;;;;;;;4.60;2.00;;;;;;;1.26;47.24;101478.81;5075792;28;20174;-69
2021/03/09 08:49:34;;;;;;;3.80;1.93;;;;;;;1.47;46.96;101483.97;5074925;28;20202;-68
2021/03/09 08:52:01;;;;;;;3.07;1.70;;;;;;;1.53;46.99;101473.44;5075223;28;20228;-68
2021/03/09 08:54:37;;;;;;;4.33;1.93;;;;;;;1.46;46.33;101479.56;5074577;28;20282;-68
2021/03/09 08:57:12;;;;;;;5.90;2.03;;;;;;;1.71;46.10;101475.06;5075883;28;20197;-68
2021/03/09 08:59:39;;;;;;;12.90;2.27;;;;;;;1.85;46.01;101472.31;5075803;28;20720;-68
2021/03/09 09:02:17;;;;;;;5.47;2.07;;;;;;;1.98;45.95;101468.75;5074754;28;20211;-69
2021/03/09 09:04:49;;;;;;;3.20;1.57;;;;;;;1.95;44.63;101465.25;5075778;28;20190;-68
2021/03/09 09:07:23;;;;;;;6.30;2.47;;;;;;;2.02;45.00;101465.19;5074339;28;20177;-68
2021/03/09 09:09:56;;;;;;;2.80;1.43;;;;;;;2.20;45.42;101461.53;5075568;28;20157;-67
2021/03/09 09:12:29;;;;;;;3.23;1.77;;;;;;;2.19;45.52;101468.53;5075532;28;20680;-68
2021/03/09 09:15:15;;;;;;;3.17;1.67;;;;;;;2.33;45.06;101459.69;5058008;28;20193;-67
2021/03/09 09:17:52;;;;;;;3.13;1.53;;;;;;;2.51;44.09;101447.19;5060216;28;20173;-68
2021/03/09 09:20:19;;;;;;;3.63;1.40;;;;;;;2.67;43.54;101461.09;5074312;28;20275;-68
2021/03/09 09:22:45;;;;;;;3.17;1.63;;;;;;;2.75;43.32;101472.41;5075519;28;20189;-70
2021/03/09 09:25:12;;;;;;;6.17;1.80;;;;;;;2.82;42.26;101466.19;5088368;28;20198;-72
2021/03/09 09:27:40;;;;;;;2.63;1.40;;;;;;;2.92;41.66;101460.81;5087302;28;20192;-69
2021/03/09 09:30:06;;;;;;;4.17;1.57;;;;;;;3.03;41.94;101456.28;5074033;28;20174;-69
2021/03/09 09:32:51;;;;;;;4.60;1.73;;;;;;;3.09;42.65;101458.84;5056191;28;20181;-69
2021/03/09 09:35:18;;;;;;;3.43;1.80;;;;;;;3.14;41.68;101462.31;5074695;28;20218;-70
2021/03/09 09:37:48;;;;;;;2.83;1.50;;;;;;;3.28;41.21;101459.47;5074048;28;20720;-69
2021/03/09 09:40:15;;;;;;;5.37;1.47;;;;;;;3.05;41.27;101462.44;5074736;28;20198;-69
2021/03/09 09:42:40;;;;;;;3.33;1.77;;;;;;;2.98;41.78;101466.03;5074393;28;20257;-69
2021/03/09 09:45:06;;;;;;;4.67;1.87;;;;;;;2.80;42.13;101467.97;5076007;28;20198;-70
2021/03/09 09:47:32;;;;;;;4.47;1.80;;;;;;;3.24;41.96;101463.94;5077946;28;20186;-69
2021/03/09 09:49:58;;;;;;;5.43;1.80;;;;;;;3.38;41.92;101462.00;5078941;28;20217;-69
2021/03/09 09:52:23;;;;;;;2.90;1.60;;;;;;;3.21;40.68;101458.69;5074102;28;20225;-69
2021/03/09 09:54:55;;;;;;;2.90;1.40;;;;;;;3.06;41.31;101457.13;5074578;28;20207;-69
2021/03/09 09:57:22;;;;;;;3.63;1.53;;;;;;;2.81;41.82;101458.28;5074234;28;20172;-70
2021/03/09 09:59:48;;;;;;;3.20;1.80;;;;;;;2.83;42.57;101454.75;5075391;28;20209;-70
2021/03/09 10:02:23;;;;;;;4.20;1.70;;;;;;;3.42;41.63;101457.56;5073717;28;20178;-68
2021/03/09 10:04:49;;;;;;;6.53;1.40;;;;;;;3.52;40.69;101458.28;5057169;28;20195;-69
2021/03/09 10:07:17;;;;;;;3.43;1.70;;;;;;;3.60;41.34;101459.03;5074232;28;20174;-69
2021/03/09 10:10:07;;;;;;;3.30;1.57;;;;;;;3.88;40.96;101447.19;5074546;28;20227;-69
2021/03/09 10:12:39;;;;;;;5.07;1.73;;;;;;;4.14;40.33;101445.91;5075123;28;20159;-69
2021/03/09 10:15:07;;;;;;;3.87;1.90;;;;;;;4.24;40.94;101447.50;5075052;28;20201;-69
2021/03/09 10:17:33;;;;;;;4.87;1.97;;;;;;;4.47;40.16;101447.97;5074074;28;20190;-69
2021/03/09 10:19:58;;;;;;;3.43;1.90;;;;;;;4.50;40.45;101441.75;5074623;28;20196;-69
2021/03/09 10:22:24;;;;;;;6.13;2.10;;;;;;;4.66;39.71;101437.91;5075160;28;20171;-69
2021/03/09 10:24:50;;;;;;;2.77;1.70;;;;;;;4.82;39.63;101439.34;5073405;28;20666;-69
2021/03/09 10:27:17;;;;;;;4.73;2.10;;;;;;;4.85;38.69;101443.72;5074380;28;20171;-69
2021/03/09 10:29:43;;;;;;;6.17;2.00;;;;;;;4.99;38.40;101439.03;5072983;28;20218;-69
2021/03/09 10:32:18;;;;;;;3.10;1.60;;;;;;;5.17;38.23;101441.28;5074432;28;20582;-68
2021/03/09 10:34:48;;;;;;;6.20;1.90;;;;;;;5.34;38.10;101440.94;5074621;28;20688;-68
2021/03/09 10:37:14;;;;;;;3.67;1.70;;;;;;;4.98;38.39;101432.00;5073783;28;20258;-70
2021/03/09 10:39:53;;;;;;;4.53;2.30;;;;;;;4.72;39.53;101421.91;5074420;28;20203;-70
2021/03/09 10:42:37;;;;;;;3.23;1.80;;;;;;;4.93;38.81;101428.56;5073343;28;20155;-69
2021/03/09 10:45:18;;;;;;;2.23;1.30;;;;;;;5.10;37.71;101429.09;5074097;28;20566;-70
2021/03/09 10:47:47;;;;;;;3.43;1.63;;;;;;;5.36;37.96;101428.53;5074031;28;20258;-69
2021/03/09 10:50:13;;;;;;;3.00;1.57;;;;;;;5.32;36.81;101427.72;5072833;28;20167;-69
2021/03/09 10:52:39;;;;;;;3.23;1.43;;;;;;;5.87;36.20;101425.59;5073937;28;20640;-70
2021/03/09 10:55:04;;;;;;;5.10;1.60;;;;;;;6.01;36.38;101425.31;5073773;28;20233;-69
2021/03/09 10:57:30;;;;;;;2.53;1.40;;;;;;;5.99;34.90;101429.78;5074495;28;20207;-69
2021/03/09 10:59:55;;;;;;;3.67;1.57;;;;;;;5.95;35.52;101428.97;5074231;28;20214;-69
2021/03/09 11:02:21;;;;;;;4.03;1.60;;;;;;;6.01;35.70;101425.31;5072587;28;20194;-69
2021/03/09 11:04:46;;;;;;;4.60;1.20;;;;;;;5.99;34.66;101422.69;5073887;28;20540;-69
2021/03/09 11:07:11;;;;;;;2.47;0.93;;;;;;;6.59;33.03;101424.66;5073945;28;20171;-69
2021/03/09 11:09:37;;;;;;;4.13;1.27;;;;;;;8.71;30.50;101412.69;5074606;28;20169;-69
2021/03/09 11:12:02;;;;;;;4.27;1.60;;;;;;;10.33;28.37;101409.84;5072367;28;20687;-69
2021/03/09 11:14:28;;;;;;;3.83;1.73;;;;;;;11.48;26.16;101417.09;5073639;28;20230;-70
2021/03/09 11:16:53;;;;;;;1.97;1.07;;;;;;;13.16;24.39;101421.94;5072313;28;20232;-68
2021/03/09 11:19:18;;;;;;;4.67;1.43;;;;;;;13.33;23.82;101411.19;5072242;28;20198;-70
2021/03/09 11:21:43;;;;;;;2.23;1.40;;;;;;;13.55;23.58;101410.00;5073426;28;20316;-68
2021/03/09 11:24:09;;;;;;;1.80;1.07;;;;;;;14.75;22.69;101402.06;5073297;28;20198;-69
2021/03/09 11:26:35;;;;;;;3.77;1.50;;;;;;;16.34;21.04;101404.28;5072300;28;20217;-69
2021/03/09 11:29:00;;;;;;;4.17;1.00;;;;;;;18.01;19.25;101407.66;5073579;28;20662;-69
2021/03/09 11:31:25;;;;;;;3.33;1.37;;;;;;;18.43;17.99;101403.53;5073358;28;20181;-69
2021/03/09 11:33:52;;;;;;;3.70;1.33;;;;;;;18.66;18.16;101403.63;5071770;28;20585;-69